Time;durP1;ratioP1;P1;durP2;ratioP2;P2;SDS_P1;SDS_P2;PMS_P1;PMS_P2;Temp;Humidity;BMP_temperature;BMP_pressure;BME280_temperature;BME280_humidity;BME280_pressure;Samples;Min_cycle;Max_cycle;Signal;HPM_P1;HPM_P2
2022/11/11 00:01:44;;;;;;;13.13;7.93;;;;;;;7.25;96.91;100137.41;5038769;27;103029;-76
2022/11/11 00:04:31;;;;;;;9.97;7.67;;;;;;;7.56;95.95;100137.97;5036633;27;103115;-76
2022/11/11 00:07:17;;;;;;;11.93;7.33;;;;;;;7.84;95.28;100131.66;5037843;27;103185;-75
2022/11/11 00:10:05;;;;;;;8.57;6.47;;;;;;;7.93;93.87;100136.56;5036356;27;103152;-76
2022/11/11 00:12:53;;;;;;;9.10;7.00;;;;;;;7.97;92.68;100132.94;5037614;27;102986;-76
2022/11/11 00:15:40;;;;;;;10.20;7.20;;;;;;;7.82;91.67;100134.38;5038417;27;103588;-75
2022/11/11 00:27:39;;;;;;;11.47;7.70;;;;;;;7.46;95.08;100147.16;5037249;27;103659;-76
2022/11/11 00:30:27;;;;;;;8.03;5.67;;;;;;;7.70;94.99;100149.75;5036372;27;103636;-76
2022/11/11 00:33:13;;;;;;;7.60;4.73;;;;;;;7.78;93.97;100147.69;5040098;27;103690;-76
2022/11/11 00:36:00;;;;;;;8.73;6.50;;;;;;;7.80;93.79;100143.25;5035276;27;103237;-76
2022/11/11 00:38:48;;;;;;;9.23;7.00;;;;;;;7.79;93.24;100154.66;5036154;27;102657;-76
2022/11/11 00:41:34;;;;;;;8.27;6.53;;;;;;;7.78;92.80;100155.56;5038956;27;103630;-76
2022/11/11 00:44:20;;;;;;;9.80;6.37;;;;;;;7.83;93.05;100151.03;5038985;27;103202;-76
2022/11/11 00:53:25;;;;;;;9.97;6.80;;;;;;;7.95;92.70;100163.69;5022069;27;103300;-76
2022/11/11 00:56:13;;;;;;;9.10;6.30;;;;;;;7.92;92.60;100163.81;5036620;27;103124;-76
2022/11/11 00:58:59;;;;;;;9.90;6.63;;;;;;;7.78;92.63;100169.59;5038778;27;102765;-76
2022/11/11 01:01:46;;;;;;;6.83;5.63;;;;;;;7.89;92.68;100177.06;5037816;27;102684;-76
2022/11/11 01:04:33;;;;;;;9.87;7.07;;;;;;;7.73;92.89;100182.06;5039326;27;102962;-76
2022/11/11 01:07:20;;;;;;;7.33;6.63;;;;;;;7.66;94.02;100177.09;5042644;27;103195;-76
2022/11/11 01:10:07;;;;;;;10.20;7.80;;;;;;;7.76;95.54;100175.84;5044995;27;102639;-76
2022/11/11 01:13:10;;;;;;;8.90;6.07;;;;;;;7.92;95.76;100166.44;5042161;27;102838;-76
2022/11/11 01:16:00;;;;;;;9.67;6.27;;;;;;;7.97;95.64;100159.25;5040478;27;103771;-76
2022/11/11 01:18:47;;;;;;;5.87;5.13;;;;;;;8.11;94.14;100163.03;5040756;27;103161;-76
2022/11/11 01:21:35;;;;;;;7.33;5.70;;;;;;;8.13;93.75;100160.34;5041399;27;102696;-76
2022/11/11 01:24:22;;;;;;;7.13;6.33;;;;;;;7.93;92.86;100147.09;5038196;27;102615;-77
2022/11/11 01:27:08;;;;;;;6.67;5.90;;;;;;;7.96;93.74;100158.38;5035299;27;103171;-77
2022/11/11 01:29:54;;;;;;;8.90;6.50;;;;;;;7.82;93.15;100155.41;5039124;27;103166;-76
2022/11/11 01:32:41;;;;;;;10.20;6.57;;;;;;;7.73;94.06;100149.63;5038162;27;102718;-76
2022/11/11 01:35:28;;;;;;;7.03;4.93;;;;;;;7.90;94.13;100157.75;5043270;27;103784;-76
2022/11/11 01:38:16;;;;;;;7.27;6.00;;;;;;;7.96;93.29;100162.78;5046467;27;103605;-76
2022/11/11 01:41:31;;;;;;;11.07;6.30;;;;;;;7.64;94.91;100171.03;5041383;27;104286;-75
2022/11/11 01:44:20;;;;;;;8.50;6.70;;;;;;;7.67;94.56;100181.44;5045084;27;102612;-76
2022/11/11 01:47:07;;;;;;;9.07;5.83;;;;;;;7.69;95.25;100171.72;5039319;27;102676;-75
2022/11/11 01:49:57;;;;;;;9.17;6.73;;;;;;;7.76;95.97;100173.19;5036930;27;103149;-75
2022/11/11 01:52:45;;;;;;;11.70;7.77;;;;;;;7.64;94.44;100171.88;5039589;27;103252;-76
2022/11/11 01:55:33;;;;;;;7.57;5.73;;;;;;;7.75;94.67;100171.50;5044547;27;102613;-76
2022/11/11 01:58:21;;;;;;;6.33;4.90;;;;;;;7.79;94.65;100162.56;5039226;27;102738;-75
2022/11/11 02:01:07;;;;;;;11.23;6.63;;;;;;;7.73;94.81;100154.91;5037307;27;103054;-76
2022/11/11 02:07:05;;;;;;;8.70;6.50;;;;;;;7.45;94.61;100174.34;5038800;27;102668;-76
2022/11/11 02:09:53;;;;;;;6.20;5.50;;;;;;;7.63;94.96;100166.69;5040634;27;104001;-76
2022/11/11 02:15:46;;;;;;;11.17;6.60;;;;;;;7.31;95.45;100179.25;5041351;27;103137;-76
2022/11/11 02:18:34;;;;;;;10.53;6.97;;;;;;;7.34;95.47;100179.13;5038970;27;102844;-76
2022/11/11 02:21:28;;;;;;;7.67;5.80;;;;;;;7.59;95.84;100166.81;5039155;27;102802;-76
2022/11/11 02:24:18;;;;;;;6.60;5.63;;;;;;;7.70;95.44;100166.41;5037617;27;104061;-76
2022/11/11 02:27:08;;;;;;;9.27;5.90;;;;;;;7.57;94.13;100176.53;5036473;27;103132;-76
2022/11/11 02:29:58;;;;;;;8.10;6.03;;;;;;;7.45;95.05;100176.97;5036653;27;102709;-75
2022/11/11 02:32:46;;;;;;;7.47;6.10;;;;;;;7.59;95.51;100172.06;5037311;27;103747;-76
2022/11/11 02:35:34;;;;;;;6.87;5.03;;;;;;;7.65;93.90;100172.75;5038844;27;103297;-76
2022/11/11 02:38:20;;;;;;;9.70;6.60;;;;;;;7.60;93.01;100175.56;5039829;27;104020;-76
2022/11/11 02:44:12;;;;;;;9.63;6.17;;;;;;;7.49;93.24;100167.22;5037058;27;103977;-76
2022/11/11 02:46:59;;;;;;;11.27;6.23;;;;;;;7.66;93.88;100164.81;5039101;27;104126;-76
2022/11/11 02:49:45;;;;;;;7.00;5.33;;;;;;;7.66;94.07;100163.94;5036982;27;103282;-76
2022/11/11 02:52:32;;;;;;;7.40;5.83;;;;;;;7.70;93.11;100171.66;5041438;27;102610;-75
2022/11/11 02:55:18;;;;;;;8.30;5.83;;;;;;;7.80;93.61;100169.56;5042221;27;102711;-76
2022/11/11 02:58:06;;;;;;;8.03;6.13;;;;;;;7.73;92.97;100161.03;5037412;27;103707;-76
2022/11/11 03:00:53;;;;;;;8.93;6.80;;;;;;;7.71;92.84;100156.75;5034053;27;104014;-76
2022/11/11 03:03:39;;;;;;;7.70;6.67;;;;;;;7.65;92.53;100164.84;5039217;27;103125;-76
2022/11/11 03:06:26;;;;;;;8.07;5.60;;;;;;;7.76;92.95;100162.69;5038782;27;102661;-76
2022/11/11 03:09:12;;;;;;;11.10;6.70;;;;;;;7.72;92.26;100161.09;5039168;27;103234;-76
2022/11/11 03:11:59;;;;;;;7.67;5.97;;;;;;;7.67;92.34;100157.75;5035560;27;103095;-76
2022/11/11 03:14:47;;;;;;;5.93;5.20;;;;;;;7.71;92.44;100154.09;5043360;27;102642;-76
2022/11/11 03:17:38;;;;;;;9.37;6.80;;;;;;;7.60;91.60;100151.88;5042194;27;104040;-76
2022/11/11 03:23:30;;;;;;;7.40;5.43;;;;;;;7.49;92.77;100161.94;5037847;27;103154;-77
2022/11/11 03:26:16;;;;;;;10.50;6.67;;;;;;;7.45;91.80;100155.06;5034959;27;102786;-76
2022/11/11 03:29:04;;;;;;;10.33;7.50;;;;;;;7.25;93.80;100163.69;5038153;27;103318;-76
2022/11/11 03:31:52;;;;;;;7.70;6.53;;;;;;;7.39;93.41;100160.56;5035176;27;103185;-76
2022/11/11 03:34:39;;;;;;;9.93;7.10;;;;;;;7.46;93.65;100152.41;5034747;27;103285;-76
2022/11/11 03:40:29;;;;;;;9.17;6.17;;;;;;;7.48;92.82;100152.34;5038379;27;104387;-76
2022/11/11 03:43:18;;;;;;;9.90;8.43;;;;;;;7.36;92.24;100161.53;5037378;27;103787;-76
2022/11/11 03:46:05;;;;;;;9.37;7.63;;;;;;;7.40;92.68;100159.66;5032600;27;103173;-76
2022/11/11 03:48:53;;;;;;;8.33;6.47;;;;;;;7.38;91.95;100164.94;5035437;27;102722;-76
2022/11/11 03:51:40;;;;;;;10.83;8.20;;;;;;;7.29;92.33;100162.69;5039396;27;103612;-76
2022/11/11 03:54:26;;;;;;;8.10;7.30;;;;;;;7.14;91.83;100160.59;5038074;27;104007;-76
2022/11/11 04:00:22;;;;;;;8.03;5.93;;;;;;;7.26;92.61;100183.81;5036178;27;102777;-76
2022/11/11 04:12:26;;;;;;;8.20;6.33;;;;;;;6.97;93.32;100195.34;5035986;27;103952;-77
2022/11/11 04:18:17;;;;;;;8.83;6.13;;;;;;;7.10;93.74;100190.53;5036364;27;103622;-75
2022/11/11 04:27:15;;;;;;;9.57;6.17;;;;;;;7.06;92.89;100182.78;5034678;27;103547;-77
2022/11/11 04:30:00;;;;;;;7.20;5.40;;;;;;;7.21;93.06;100177.00;5036520;27;103350;-76
2022/11/11 04:32:46;;;;;;;8.27;6.20;;;;;;;7.26;92.13;100170.66;5036146;27;103146;-76
2022/11/11 04:35:33;;;;;;;10.00;7.33;;;;;;;7.03;90.71;100178.50;5038078;27;102737;-77
2022/11/11 04:41:25;;;;;;;5.97;4.90;;;;;;;7.17;91.35;100184.13;5039278;27;104024;-77
2022/11/11 04:47:35;;;;;;;8.17;6.10;;;;;;;6.60;91.49;100189.59;5039446;27;102668;-77
2022/11/11 04:50:22;;;;;;;6.60;5.90;;;;;;;6.46;93.82;100211.97;5039556;27;102916;-77
2022/11/11 04:53:11;;;;;;;8.27;5.73;;;;;;;6.39;94.29;100208.66;5028575;27;103551;-77
2022/11/11 05:05:07;;;;;;;6.63;5.53;;;;;;;6.45;94.36;100237.38;5042160;27;103314;-77
2022/11/11 05:10:58;;;;;;;9.80;6.40;;;;;;;6.55;94.68;100237.91;5035926;27;103088;-77
2022/11/11 05:23:01;;;;;;;8.67;6.50;;;;;;;6.63;93.35;100268.28;5034908;27;102657;-76
2022/11/11 05:25:47;;;;;;;6.53;5.63;;;;;;;6.76;92.55;100268.75;5034528;27;102943;-76
2022/11/11 05:28:33;;;;;;;7.03;6.30;;;;;;;6.78;91.87;100267.81;5034161;27;103254;-76
2022/11/11 05:31:20;;;;;;;8.40;6.87;;;;;;;6.43;92.08;100282.97;5031485;27;102977;-76
2022/11/11 05:34:08;;;;;;;5.97;5.47;;;;;;;6.41;92.62;100278.59;5035598;27;102720;-76
2022/11/11 05:36:54;;;;;;;8.43;6.93;;;;;;;6.52;92.60;100277.41;5038828;27;104542;-77
2022/11/11 05:39:40;;;;;;;8.17;6.10;;;;;;;6.61;92.32;100266.63;5037815;27;103171;-76
2022/11/11 05:42:27;;;;;;;6.20;5.60;;;;;;;6.64;91.63;100277.03;5044921;27;103134;-76
2022/11/11 05:45:13;;;;;;;6.17;4.83;;;;;;;6.49;91.13;100275.72;5043652;27;102601;-76
2022/11/11 05:48:02;;;;;;;6.60;4.90;;;;;;;6.55;91.41;100274.69;5039390;27;103504;-76
2022/11/11 05:50:50;;;;;;;6.33;4.80;;;;;;;6.65;91.28;100279.59;5039054;27;103244;-76
2022/11/11 05:53:36;;;;;;;7.77;6.87;;;;;;;6.40;89.70;100297.00;5038046;27;103163;-75
2022/11/11 05:56:22;;;;;;;9.23;6.43;;;;;;;6.15;91.94;100304.75;5030833;27;102791;-68
2022/11/11 05:59:10;;;;;;;6.63;5.93;;;;;;;5.61;94.15;100304.53;5029460;27;103071;-68
2022/11/11 06:01:57;;;;;;;6.93;6.07;;;;;;;5.46;96.53;100298.81;5014301;27;103216;-68
2022/11/11 06:04:43;;;;;;;9.10;6.70;;;;;;;5.70;95.52;100298.16;5018036;27;103001;-67
2022/11/11 06:07:31;;;;;;;7.17;6.13;;;;;;;5.70;95.20;100304.25;5026647;27;102784;-66
2022/11/11 06:10:32;;;;;;;8.93;6.53;;;;;;;5.78;95.39;100306.69;5019041;27;102754;-67
2022/11/11 06:13:19;;;;;;;6.07;5.47;;;;;;;5.84;95.23;100302.13;5013730;27;103204;-67
2022/11/11 06:16:06;;;;;;;4.47;4.03;;;;;;;6.07;95.28;100306.75;5025714;27;103717;-66
2022/11/11 06:18:53;;;;;;;5.70;4.70;;;;;;;6.21;94.73;100312.47;5018499;27;103969;-67
2022/11/11 06:21:59;;;;;;;5.00;4.50;;;;;;;6.31;93.99;100319.19;5024594;27;102695;-67
2022/11/11 06:26:11;;;;;;;5.10;4.47;;;;;;;6.49;93.56;100322.13;5017327;27;103234;-67
2022/11/11 06:27:53;;;;;;;4.17;3.77;;;;;;;6.57;92.60;100325.41;5018569;27;103247;-67
2022/11/11 06:30:40;;;;;;;5.40;4.90;;;;;;;6.50;91.29;100335.22;5030595;27;102789;-69
2022/11/11 06:33:38;;;;;;;3.50;3.13;;;;;;;6.62;91.43;100337.50;5025132;27;103827;-68
2022/11/11 06:36:24;;;;;;;4.17;3.73;;;;;;;6.59;91.03;100329.72;5023077;27;103786;-67
2022/11/11 06:39:11;;;;;;;3.90;3.50;;;;;;;6.69;90.89;100330.25;5028567;27;103108;-68
2022/11/11 06:42:00;;;;;;;5.47;4.87;;;;;;;6.72;90.61;100335.44;5031077;27;102600;-67
2022/11/11 06:44:47;;;;;;;5.00;4.20;;;;;;;6.78;90.44;100343.13;5020709;27;103445;-66
2022/11/11 06:47:34;;;;;;;6.57;3.93;;;;;;;6.78;89.77;100341.34;5013234;27;103545;-66
2022/11/11 06:50:21;;;;;;;4.80;4.00;;;;;;;6.81;90.05;100343.03;5019099;27;103163;-66
2022/11/11 06:53:09;;;;;;;5.23;4.20;;;;;;;6.79;90.09;100342.22;5018647;27;103377;-66
2022/11/11 06:55:56;;;;;;;11.60;5.03;;;;;;;6.70;90.43;100334.63;5020631;27;103891;-66
2022/11/11 06:58:44;;;;;;;6.67;4.90;;;;;;;6.57;92.01;100336.75;5028826;27;103207;-66
2022/11/11 07:01:30;;;;;;;7.70;5.53;;;;;;;6.55;92.01;100345.59;5027796;27;103366;-66
2022/11/11 07:04:17;;;;;;;9.60;5.20;;;;;;;6.64;92.28;100335.66;5033670;27;102665;-66
2022/11/11 07:07:03;;;;;;;5.80;4.50;;;;;;;6.77;91.84;100344.03;5029136;27;103586;-66
2022/11/11 07:09:50;;;;;;;6.77;5.77;;;;;;;6.61;93.14;100338.38;5030360;27;103708;-66
2022/11/11 07:12:36;;;;;;;11.40;6.53;;;;;;;6.64;92.03;100347.94;5029879;27;103151;-66
2022/11/11 07:15:24;;;;;;;9.50;6.27;;;;;;;6.62;92.61;100350.63;5026449;27;103010;-66
2022/11/11 07:18:12;;;;;;;6.40;5.80;;;;;;;6.69;92.50;100340.78;5027541;27;104597;-66
2022/11/11 07:20:58;;;;;;;7.77;5.60;;;;;;;6.89;92.04;100346.28;5036330;27;103048;-65
2022/11/11 07:23:44;;;;;;;9.70;6.43;;;;;;;7.01;91.41;100353.78;5030912;27;103110;-66
2022/11/11 07:26:31;;;;;;;5.23;4.73;;;;;;;7.03;90.64;100351.94;5037175;27;105862;-65
2022/11/11 07:29:18;;;;;;;8.93;5.43;;;;;;;7.21;90.56;100351.38;5032040;27;103960;-66
2022/11/11 07:32:06;;;;;;;10.17;6.00;;;;;;;7.12;90.79;100345.53;5031321;27;103267;-66
2022/11/11 07:34:53;;;;;;;6.50;5.40;;;;;;;7.06;91.13;100348.38;5022086;27;103199;-66
2022/11/11 07:37:40;;;;;;;6.77;6.07;;;;;;;7.07;90.75;100353.59;5021811;27;102658;-66
2022/11/11 07:40:26;;;;;;;6.10;5.13;;;;;;;7.34;90.00;100357.94;5021606;27;103971;-66
2022/11/11 07:43:13;;;;;;;10.57;6.17;;;;;;;7.30;89.56;100355.44;5034288;27;104105;-66
2022/11/11 07:45:59;;;;;;;6.47;4.83;;;;;;;7.37;89.80;100357.84;5037088;27;103161;-66
2022/11/11 07:48:47;;;;;;;5.83;4.90;;;;;;;7.35;89.06;100354.41;5042735;27;102786;-66
2022/11/11 07:51:33;;;;;;;5.53;4.93;;;;;;;7.18;90.58;100351.47;5037020;27;102612;-66
2022/11/11 07:54:20;;;;;;;7.43;5.17;;;;;;;7.51;89.42;100352.13;5036579;27;103204;-66
2022/11/11 07:57:07;;;;;;;6.77;4.43;;;;;;;7.45;89.52;100349.69;5032782;27;103144;-66
2022/11/11 07:59:53;;;;;;;5.27;4.77;;;;;;;7.45;90.11;100347.91;5041095;27;102633;-66
2022/11/11 08:02:39;;;;;;;5.70;5.10;;;;;;;7.46;90.13;100341.75;5039971;27;103937;-66
2022/11/11 08:05:27;;;;;;;5.87;4.80;;;;;;;7.53;89.51;100342.38;5036575;27;102743;-65
2022/11/11 08:08:14;;;;;;;8.33;5.63;;;;;;;7.55;88.96;100344.06;5037775;27;103164;-66
2022/11/11 08:11:00;;;;;;;9.33;5.30;;;;;;;7.79;88.76;100341.50;5039763;27;102939;-66
2022/11/11 08:13:49;;;;;;;8.60;5.27;;;;;;;8.00;88.27;100348.63;5039670;27;102999;-66
2022/11/11 08:16:35;;;;;;;7.07;5.47;;;;;;;8.11;86.87;100357.00;5037546;27;103200;-65
2022/11/11 08:19:22;;;;;;;6.40;4.90;;;;;;;8.26;86.99;100350.28;5041643;27;103190;-66
2022/11/11 08:22:10;;;;;;;6.70;4.70;;;;;;;8.30;85.88;100352.81;5038816;27;102864;-66
2022/11/11 08:24:56;;;;;;;7.83;5.30;;;;;;;8.27;86.66;100339.75;5041539;27;102611;-66
2022/11/11 08:27:56;;;;;;;7.60;5.30;;;;;;;8.32;85.34;100343.06;5042227;27;103077;-66
2022/11/11 08:30:43;;;;;;;5.87;5.27;;;;;;;8.31;85.21;100341.34;5039663;27;103652;-66
2022/11/11 08:33:29;;;;;;;6.37;4.87;;;;;;;8.35;86.19;100345.59;5031284;27;102681;-66
2022/11/11 08:36:22;;;;;;;8.80;5.20;;;;;;;8.66;85.47;100343.50;5035196;27;103150;-66
2022/11/11 08:39:10;;;;;;;9.27;4.50;;;;;;;8.73;85.74;100344.13;5035679;27;104160;-66
2022/11/11 08:41:56;;;;;;;5.53;4.77;;;;;;;8.73;85.51;100339.72;5043834;27;103171;-66
2022/11/11 08:44:43;;;;;;;9.10;5.67;;;;;;;8.72;85.23;100345.91;5041789;27;103885;-66
2022/11/11 08:47:30;;;;;;;6.03;5.20;;;;;;;8.83;84.90;100337.59;5051763;27;103617;-65
2022/11/11 08:50:16;;;;;;;5.90;4.93;;;;;;;8.79;84.89;100340.38;5039444;27;103274;-65
2022/11/11 08:53:03;;;;;;;6.40;5.40;;;;;;;8.94;84.18;100353.84;5040855;27;103190;-65
2022/11/11 08:55:51;;;;;;;8.13;5.53;;;;;;;9.27;83.48;100352.47;5037505;27;102686;-65
2022/11/11 08:58:38;;;;;;;5.67;4.97;;;;;;;9.25;84.17;100346.41;5034371;27;102821;-66
2022/11/11 09:01:24;;;;;;;6.00;5.23;;;;;;;9.67;82.00;100346.38;5039802;27;103218;-66
2022/11/11 09:04:11;;;;;;;6.73;4.67;;;;;;;9.99;81.99;100354.69;5034699;27;103204;-65
2022/11/11 09:07:17;;;;;;;7.43;5.03;;;;;;;10.03;80.17;100357.13;5032125;27;102945;-68
2022/11/11 09:10:04;;;;;;;6.30;5.70;;;;;;;10.00;80.34;100361.66;5037959;27;102999;-68
2022/11/11 09:12:57;;;;;;;6.47;5.07;;;;;;;9.78;81.74;100357.34;5037847;27;103472;-65
2022/11/11 09:15:43;;;;;;;6.27;5.00;;;;;;;10.29;80.43;100353.34;5043773;27;103169;-65
2022/11/11 09:18:31;;;;;;;5.90;4.93;;;;;;;10.47;79.96;100347.22;5043319;27;102571;-66
2022/11/11 09:21:18;;;;;;;10.83;5.53;;;;;;;10.36;79.99;100341.56;5035873;27;102953;-65
2022/11/11 09:24:05;;;;;;;8.17;4.93;;;;;;;10.29;79.99;100337.50;5036376;27;104507;-65
2022/11/11 09:26:54;;;;;;;7.17;5.50;;;;;;;10.62;79.31;100341.22;5036093;27;103052;-65
2022/11/11 09:29:42;;;;;;;5.83;4.90;;;;;;;11.37;77.64;100336.66;5041503;27;102729;-65
2022/11/11 09:32:28;;;;;;;6.53;4.93;;;;;;;10.97;77.77;100335.16;5038703;27;102687;-69
2022/11/11 09:35:15;;;;;;;5.97;5.07;;;;;;;10.95;77.53;100329.06;5036124;27;103977;-65
2022/11/11 09:38:02;;;;;;;7.77;5.40;;;;;;;11.10;78.12;100331.88;5038004;27;103010;-65
2022/11/11 09:41:01;;;;;;;8.10;5.13;;;;;;;11.37;76.95;100323.44;5041162;27;102593;-65
2022/11/11 09:43:54;;;;;;;10.30;5.50;;;;;;;11.34;76.41;100320.13;5037478;27;103105;-64
2022/11/11 09:46:48;;;;;;;6.27;5.53;;;;;;;11.24;77.11;100329.41;5042058;27;104025;-65
2022/11/11 09:49:56;;;;;;;6.93;4.93;;;;;;;11.47;76.32;100326.50;5049858;27;103256;-65
2022/11/11 09:52:47;;;;;;;6.93;5.00;;;;;;;11.46;76.38;100320.34;5043191;27;102752;-65
2022/11/11 09:55:38;;;;;;;5.83;5.23;;;;;;;11.48;76.76;100318.47;5035078;27;103894;-65
2022/11/11 09:58:31;;;;;;;7.20;4.77;;;;;;;11.73;75.48;100312.81;5047659;27;104160;-65
2022/11/11 10:01:21;;;;;;;6.57;4.90;;;;;;;11.49;76.30;100311.38;5045329;27;102694;-65
2022/11/11 10:04:25;;;;;;;6.00;5.22;;;;;;;12.22;73.48;100313.72;5039038;27;102698;-65
2022/11/11 10:07:20;;;;;;;8.17;5.13;;;;;;;11.98;74.50;100301.81;5036826;27;102687;-65
2022/11/11 10:10:16;;;;;;;7.90;5.30;;;;;;;12.25;75.91;100315.34;5037142;27;103227;-66
2022/11/11 10:13:03;;;;;;;6.07;5.37;;;;;;;12.30;74.54;100313.31;5035788;27;103265;-65
2022/11/11 10:16:01;;;;;;;9.70;5.20;;;;;;;12.38;74.35;100311.13;5037521;27;102624;-65
2022/11/11 10:19:02;;;;;;;7.63;5.33;;;;;;;12.50;73.27;100315.75;5042694;27;102771;-65
2022/11/11 10:21:52;;;;;;;8.13;5.00;;;;;;;12.57;72.95;100315.34;5040275;27;103291;-66
2022/11/11 10:25:08;;;;;;;5.90;5.07;;;;;;;12.56;73.62;100315.41;5043688;27;103143;-66
2022/11/11 10:27:58;;;;;;;7.80;5.23;;;;;;;12.51;73.22;100317.47;5034611;27;102830;-65
2022/11/11 10:30:47;;;;;;;4.33;3.93;;;;;;;12.80;74.05;100316.69;5043207;27;104713;-65
2022/11/11 10:33:42;;;;;;;8.00;4.83;;;;;;;12.96;72.99;100320.22;5038117;27;104302;-65
2022/11/11 10:36:30;;;;;;;6.07;4.60;;;;;;;12.95;72.04;100318.47;5040240;27;103156;-65
2022/11/11 10:39:31;;;;;;;7.30;4.80;;;;;;;13.03;71.99;100321.56;5029846;27;103083;-65
2022/11/11 10:42:18;;;;;;;6.40;4.77;;;;;;;13.22;71.86;100330.19;5039207;27;102721;-66
2022/11/11 10:45:14;;;;;;;7.00;5.40;;;;;;;13.44;70.46;100326.31;5041106;27;104026;-65
2022/11/11 10:48:06;;;;;;;6.03;4.63;;;;;;;13.56;71.38;100322.94;5038021;27;103132;-65
2022/11/11 10:50:57;;;;;;;4.90;4.30;;;;;;;13.78;71.01;100310.09;5035382;27;102701;-65
2022/11/11 10:53:53;;;;;;;6.13;5.10;;;;;;;13.43;70.16;100308.66;5043064;27;103538;-65
2022/11/11 10:56:47;;;;;;;6.37;4.53;;;;;;;13.61;70.92;100300.50;5041635;27;103927;-65
2022/11/11 10:59:39;;;;;;;7.37;4.63;;;;;;;13.56;72.09;100309.69;5039977;27;103005;-65
2022/11/11 11:02:30;;;;;;;5.40;4.50;;;;;;;13.91;70.67;100300.44;5035647;27;102967;-65
2022/11/11 11:05:24;;;;;;;3.83;3.47;;;;;;;14.14;70.24;100293.72;5036163;27;102581;-65
2022/11/11 11:08:15;;;;;;;4.80;4.33;;;;;;;14.34;68.58;100293.34;5046086;27;104506;-65
2022/11/11 11:11:07;;;;;;;6.10;4.63;;;;;;;14.61;68.78;100280.09;5035630;27;103127;-65
2022/11/11 11:14:00;;;;;;;5.27;4.10;;;;;;;15.02;68.08;100272.94;5040984;27;102750;-65
2022/11/11 11:16:54;;;;;;;6.17;4.30;;;;;;;14.70;68.49;100268.88;5042098;27;102999;-65
2022/11/11 11:19:40;;;;;;;7.07;4.10;;;;;;;14.45;69.27;100270.47;5044168;27;103805;-65
2022/11/11 11:22:45;;;;;;;4.13;3.63;;;;;;;14.47;69.07;100267.69;5034948;27;103153;-65
2022/11/11 11:25:33;;;;;;;8.00;4.43;;;;;;;14.72;69.07;100270.47;5038426;27;102577;-65
2022/11/11 11:28:19;;;;;;;6.13;4.10;;;;;;;14.89;68.00;100272.91;5039157;27;102938;-65
2022/11/11 11:31:09;;;;;;;7.27;4.07;;;;;;;15.17;68.03;100273.75;5038085;27;103634;-65
2022/11/11 11:33:56;;;;;;;6.00;3.87;;;;;;;15.06;67.99;100271.78;5038960;27;102614;-68
2022/11/11 11:36:43;;;;;;;7.30;4.17;;;;;;;14.78;67.93;100277.22;5035962;27;103049;-68
2022/11/11 11:39:34;;;;;;;6.60;4.53;;;;;;;14.58;68.68;100269.66;5033821;27;102939;-68
2022/11/11 11:42:29;;;;;;;4.77;3.97;;;;;;;15.17;67.07;100269.28;5037454;27;103597;-68
2022/11/11 11:45:19;;;;;;;8.03;4.00;;;;;;;15.30;66.17;100272.81;5035099;27;103142;-67
2022/11/11 11:48:25;;;;;;;3.60;3.30;;;;;;;16.05;64.49;100268.56;5035275;27;102948;-68
2022/11/11 11:51:28;;;;;;;6.73;5.00;;;;;;;15.86;64.84;100265.50;5029355;27;103098;-67
2022/11/11 11:54:33;;;;;;;5.37;4.03;;;;;;;16.04;63.97;100256.19;5029529;27;103224;-67
2022/11/11 11:57:30;;;;;;;3.90;3.50;;;;;;;16.63;63.03;100252.78;5018212;27;107196;-67
2022/11/11 12:00:20;;;;;;;5.57;3.70;;;;;;;16.70;62.95;100255.88;5044439;27;102897;-67
2022/11/11 12:03:38;;;;;;;7.63;4.13;;;;;;;16.57;62.09;100257.72;5049562;27;102633;-67
2022/11/11 12:06:35;;;;;;;5.83;3.57;;;;;;;17.11;60.42;100250.13;5048911;27;103388;-67
2022/11/11 12:09:31;;;;;;;5.60;4.33;;;;;;;17.09;58.58;100257.41;5049099;27;103130;-68
2022/11/11 12:12:28;;;;;;;8.80;3.87;;;;;;;17.03;61.32;100257.88;5051198;27;102668;-67
2022/11/11 12:15:28;;;;;;;4.60;3.57;;;;;;;17.63;59.05;100252.38;5047424;27;103790;-67
2022/11/11 12:18:40;;;;;;;4.27;3.50;;;;;;;17.60;60.90;100258.00;5057638;27;103637;-68
2022/11/11 12:21:34;;;;;;;4.27;3.33;;;;;;;17.20;61.02;100250.31;5060699;27;103151;-68
2022/11/11 12:24:35;;;;;;;8.83;4.20;;;;;;;16.89;62.16;100250.88;5059291;27;102637;-68
2022/11/11 12:27:32;;;;;;;5.63;3.35;;;;;;;17.08;61.96;100250.38;5051981;27;103045;-68
2022/11/11 12:30:26;;;;;;;3.60;3.23;;;;;;;17.03;60.61;100248.03;5052469;27;103223;-68
2022/11/11 12:33:42;;;;;;;4.30;3.90;;;;;;;16.58;62.16;100244.28;5038535;27;103212;-67
2022/11/11 12:36:35;;;;;;;6.73;4.33;;;;;;;16.46;63.35;100246.94;5010663;27;103036;-68
2022/11/11 12:39:50;;;;;;;3.73;3.23;;;;;;;16.70;63.47;100238.03;5044488;27;103683;-68
2022/11/11 12:42:51;;;;;;;6.23;3.67;;;;;;;16.69;63.71;100239.00;5035975;27;103999;-65
2022/11/11 12:45:46;;;;;;;5.43;3.37;;;;;;;16.51;64.79;100242.13;5046542;27;103135;-65
2022/11/11 12:48:47;;;;;;;3.87;3.33;;;;;;;16.91;63.59;100243.59;5044220;27;102900;-65
2022/11/11 12:51:48;;;;;;;4.97;3.80;;;;;;;16.48;62.41;100250.34;5032927;27;103115;-65
2022/11/11 12:54:46;;;;;;;4.07;3.00;;;;;;;17.07;62.60;100243.31;5034161;27;103246;-64
2022/11/11 12:57:44;;;;;;;4.00;2.97;;;;;;;16.73;62.00;100245.81;5050365;27;103105;-65
2022/11/11 13:00:33;;;;;;;3.63;2.23;;;;;;;16.83;62.53;100231.78;5048380;27;103033;-65
2022/11/11 13:03:35;;;;;;;2.63;2.43;;;;;;;16.73;63.47;100228.94;5051046;27;103931;-64
2022/11/11 13:06:55;;;;;;;3.53;2.43;;;;;;;16.44;63.26;100227.53;5050604;27;104046;-65
2022/11/11 13:10:04;;;;;;;3.88;2.67;;;;;;;16.16;63.58;100231.34;5045862;27;103728;-65
2022/11/11 13:12:59;;;;;;;4.00;2.40;;;;;;;15.92;65.78;100231.25;5036358;27;102737;-65
2022/11/11 13:15:48;;;;;;;4.03;2.80;;;;;;;16.36;65.98;100225.44;5045405;27;102793;-64
2022/11/11 13:18:45;;;;;;;4.40;2.70;;;;;;;15.68;65.39;100221.44;5046855;27;103212;-64
2022/11/11 13:21:44;;;;;;;6.17;2.90;;;;;;;15.78;66.51;100222.50;5046096;27;103646;-65
2022/11/11 13:24:31;;;;;;;4.70;2.60;;;;;;;15.96;64.28;100222.09;5046694;27;102867;-65
2022/11/11 13:27:25;;;;;;;2.20;1.90;;;;;;;16.67;64.27;100219.56;5040502;27;102872;-65
2022/11/11 13:30:43;;;;;;;3.60;2.30;;;;;;;16.85;64.63;100222.72;5044803;27;103236;-67
2022/11/11 13:33:38;;;;;;;5.33;3.70;;;;;;;16.54;62.76;100229.44;5035392;27;103048;-66
2022/11/11 13:36:27;;;;;;;5.83;2.57;;;;;;;16.00;64.00;100218.22;5047119;27;102926;-62
2022/11/11 13:39:27;;;;;;;5.80;2.60;;;;;;;16.42;63.97;100221.47;5044900;27;103039;-65
2022/11/11 13:42:22;;;;;;;6.13;2.47;;;;;;;16.39;64.64;100227.03;5043965;27;104052;-65
2022/11/11 13:45:24;;;;;;;4.05;2.63;;;;;;;16.35;64.31;100223.72;5048485;27;104222;-68
2022/11/11 13:48:21;;;;;;;2.23;1.70;;;;;;;16.61;64.59;100214.72;5044800;27;103168;-67
2022/11/11 13:51:20;;;;;;;3.07;2.20;;;;;;;16.47;64.86;100217.50;5047106;27;102859;-66
2022/11/11 13:54:21;;;;;;;2.77;2.17;;;;;;;16.59;64.27;100221.94;5019460;27;106202;-67
2022/11/11 13:57:19;;;;;;;3.53;1.83;;;;;;;16.50;63.83;100216.41;5051219;27;103266;-67
2022/11/11 14:00:23;;;;;;;3.60;2.10;;;;;;;16.42;64.33;100208.97;5046057;27;102791;-66
2022/11/11 14:03:37;;;;;;;2.20;1.90;;;;;;;16.63;63.53;100206.56;5049428;27;103929;-69
2022/11/11 14:06:51;;;;;;;2.23;2.03;;;;;;;16.55;65.22;100206.28;5046235;27;103251;-66
2022/11/11 14:09:55;;;;;;;2.72;2.47;;;;;;;16.34;65.30;100208.66;5043918;27;103134;-68
2022/11/11 14:12:44;;;;;;;3.77;2.60;;;;;;;16.02;65.51;100208.31;5033342;27;102694;-71
2022/11/11 14:15:37;;;;;;;4.17;2.90;;;;;;;16.08;66.25;100209.69;5046472;27;102754;-71
2022/11/11 14:18:53;;;;;;;6.43;2.37;;;;;;;15.41;68.53;100214.34;5048571;27;103237;-68
2022/11/11 14:21:47;;;;;;;3.30;3.00;;;;;;;15.78;66.99;100222.50;4962225;28;104115;-76
2022/11/11 14:24:38;;;;;;;3.30;2.60;;;;;;;15.87;66.26;100229.84;5047132;27;102776;-73
2022/11/11 14:27:30;;;;;;;4.67;2.17;;;;;;;15.35;69.13;100232.59;5052041;27;104022;-75
2022/11/11 14:30:37;;;;;;;2.90;1.93;;;;;;;15.54;69.03;100233.91;5051000;27;102692;-75
2022/11/11 14:33:36;;;;;;;4.50;2.20;;;;;;;15.73;67.60;100233.50;5042923;27;103160;-67